ANZ416 NZCH-NZHN
Flight info
| Callsign | ANZ416 |
|---|---|
| Flight time | 1h 20m |
| Altitude | 37000 |
| Route | GLENN Y175 OPABI Q126 HN |
| Aircraft | A320/M-SDE3FGHIRWY/LB1 |
Departure
| Time | 2026-04-28 22:47 |
|---|---|
| Airport | Christchurch International Airport (NZCH) |
Arrival
| Time | 2026-04-29 00:08 |
|---|---|
| Airport | Hamilton International Airport (NZHN) |
| Time | Latitude | Longitude | Altitude | Speed | Heading |
|---|---|---|---|---|---|
| 2026-04-28 22:40 | -43.49794 | 172.52406 | 131 ft | 0 kts | 275° |
| 2026-04-28 22:46 | -43.49789 | 172.52318 | 131 ft | 16 kts | 276° |
| 2026-04-28 22:46 | -43.49717 | 172.52263 | 131 ft | 15 kts | 38° |
| 2026-04-28 22:46 | -43.49625 | 172.52370 | 131 ft | 28 kts | 40° |
| 2026-04-28 22:47 | -43.49241 | 172.52809 | 123 ft | 112 kts | 39° |
| 2026-04-28 22:47 | -43.48474 | 172.53709 | 276 ft | 165 kts | 40° |
| 2026-04-28 22:47 | -43.47564 | 172.54774 | 995 ft | 175 kts | 38° |
| 2026-04-28 22:47 | -43.46629 | 172.55695 | 2027 ft | 169 kts | 25° |
| 2026-04-28 22:48 | -43.45536 | 172.56357 | 2799 ft | 178 kts | 15° |
| 2026-04-28 22:48 | -43.44350 | 172.56987 | 3311 ft | 193 kts | 19° |
| 2026-04-28 22:48 | -43.43071 | 172.57756 | 3791 ft | 210 kts | 20° |
| 2026-04-28 22:48 | -43.41668 | 172.58630 | 4290 ft | 228 kts | 21° |
| 2026-04-28 22:49 | -43.40171 | 172.59582 | 4720 ft | 251 kts | 22° |
| 2026-04-28 22:49 | -43.38526 | 172.60641 | 5301 ft | 269 kts | 22° |
| 2026-04-28 22:49 | -43.36813 | 172.61749 | 6091 ft | 276 kts | 22° |
| 2026-04-28 22:49 | -43.35082 | 172.62871 | 6934 ft | 281 kts | 23° |
| 2026-04-28 22:50 | -43.33320 | 172.64002 | 7775 ft | 285 kts | 21° |
| 2026-04-28 22:50 | -43.31468 | 172.65015 | 8609 ft | 289 kts | 17° |
| 2026-04-28 22:50 | -43.29562 | 172.65797 | 9401 ft | 292 kts | 12° |
| 2026-04-28 22:50 | -43.27596 | 172.66548 | 10170 ft | 296 kts | 15° |
| 2026-04-28 22:51 | -43.25592 | 172.67415 | 10702 ft | 309 kts | 15° |
| 2026-04-28 22:51 | -43.23495 | 172.68332 | 11065 ft | 326 kts | 16° |
| 2026-04-28 22:51 | -43.21308 | 172.69298 | 11559 ft | 338 kts | 16° |
| 2026-04-28 22:51 | -43.19048 | 172.70300 | 12272 ft | 341 kts | 16° |
| 2026-04-28 22:52 | -43.16801 | 172.71300 | 12989 ft | 342 kts | 16° |
| 2026-04-28 22:52 | -43.14541 | 172.72307 | 13676 ft | 345 kts | 16° |
| 2026-04-28 22:52 | -43.12250 | 172.73323 | 14356 ft | 347 kts | 16° |
| 2026-04-28 22:52 | -43.09972 | 172.74333 | 15011 ft | 349 kts | 16° |
| 2026-04-28 22:53 | -43.07661 | 172.75357 | 15645 ft | 352 kts | 16° |
| 2026-04-28 22:53 | -43.05338 | 172.76386 | 16283 ft | 354 kts | 16° |
| 2026-04-28 22:53 | -43.03002 | 172.77420 | 16897 ft | 356 kts | 15° |
| 2026-04-28 22:53 | -43.00639 | 172.78464 | 17470 ft | 359 kts | 15° |
| 2026-04-28 22:54 | -42.98256 | 172.79515 | 18042 ft | 362 kts | 15° |
| 2026-04-28 22:54 | -42.95845 | 172.80579 | 18620 ft | 364 kts | 15° |
| 2026-04-28 22:54 | -42.93453 | 172.81633 | 19145 ft | 367 kts | 15° |
| 2026-04-28 22:54 | -42.91013 | 172.82709 | 19682 ft | 370 kts | 15° |
| 2026-04-28 22:55 | -42.88562 | 172.83794 | 20186 ft | 374 kts | 17° |
| 2026-04-28 22:55 | -42.86115 | 172.85017 | 20685 ft | 377 kts | 19° |
| 2026-04-28 22:55 | -42.83637 | 172.86302 | 21180 ft | 381 kts | 19° |
| 2026-04-28 22:55 | -42.81149 | 172.87592 | 21664 ft | 384 kts | 19° |
| 2026-04-28 22:56 | -42.78642 | 172.88892 | 22143 ft | 386 kts | 19° |
| 2026-04-28 22:56 | -42.76118 | 172.90196 | 22607 ft | 389 kts | 19° |
| 2026-04-28 22:56 | -42.73602 | 172.91498 | 23066 ft | 392 kts | 19° |
| 2026-04-28 22:56 | -42.71034 | 172.92822 | 23522 ft | 395 kts | 19° |
| 2026-04-28 22:57 | -42.68471 | 172.94144 | 23979 ft | 397 kts | 19° |
| 2026-04-28 22:57 | -42.65876 | 172.95480 | 24446 ft | 399 kts | 19° |
| 2026-04-28 22:57 | -42.63287 | 172.96812 | 24903 ft | 400 kts | 19° |
| 2026-04-28 22:57 | -42.60698 | 172.98145 | 25352 ft | 402 kts | 20° |
| 2026-04-28 22:58 | -42.58097 | 172.99481 | 25765 ft | 404 kts | 20° |
| 2026-04-28 22:58 | -42.55456 | 173.00838 | 26172 ft | 406 kts | 20° |
| 2026-04-28 22:58 | -42.52811 | 173.02194 | 26571 ft | 408 kts | 20° |
| 2026-04-28 22:58 | -42.50133 | 173.03567 | 26967 ft | 410 kts | 20° |
| 2026-04-28 22:59 | -42.47458 | 173.04936 | 27344 ft | 413 kts | 20° |
| 2026-04-28 22:59 | -42.44772 | 173.06311 | 27720 ft | 415 kts | 20° |
| 2026-04-28 22:59 | -42.42101 | 173.07674 | 28081 ft | 417 kts | 20° |
| 2026-04-28 22:59 | -42.39372 | 173.09068 | 28448 ft | 419 kts | 20° |
| 2026-04-28 23:00 | -42.36647 | 173.10457 | 28808 ft | 420 kts | 20° |
| 2026-04-28 23:00 | -42.33903 | 173.11858 | 29173 ft | 422 kts | 20° |
| 2026-04-28 23:00 | -42.31165 | 173.13251 | 29531 ft | 423 kts | 20° |
| 2026-04-28 23:00 | -42.28416 | 173.14648 | 29868 ft | 424 kts | 21° |
| 2026-04-28 23:01 | -42.25656 | 173.16052 | 30194 ft | 426 kts | 21° |
| 2026-04-28 23:01 | -42.22895 | 173.17454 | 30482 ft | 429 kts | 21° |
| 2026-04-28 23:01 | -42.20090 | 173.18878 | 30764 ft | 431 kts | 21° |
| 2026-04-28 23:01 | -42.17284 | 173.20302 | 31050 ft | 433 kts | 21° |
| 2026-04-28 23:02 | -42.14459 | 173.21730 | 31320 ft | 435 kts | 21° |
| 2026-04-28 23:02 | -42.11622 | 173.23164 | 31616 ft | 436 kts | 21° |
| 2026-04-28 23:02 | -42.08783 | 173.24600 | 32000 ft | 435 kts | 21° |
| 2026-04-28 23:02 | -42.05957 | 173.26025 | 32386 ft | 434 kts | 21° |
| 2026-04-28 23:03 | -42.03138 | 173.27447 | 32753 ft | 433 kts | 21° |
| 2026-04-28 23:03 | -42.00335 | 173.28860 | 33120 ft | 432 kts | 21° |
| 2026-04-28 23:03 | -41.97523 | 173.30276 | 33473 ft | 432 kts | 21° |
| 2026-04-28 23:03 | -41.94726 | 173.31682 | 33830 ft | 430 kts | 21° |
| 2026-04-28 23:04 | -41.91909 | 173.33096 | 34192 ft | 429 kts | 21° |
| 2026-04-28 23:04 | -41.86335 | 173.35892 | 34895 ft | 428 kts | 21° |
| 2026-04-28 23:04 | -41.83580 | 173.37273 | 35219 ft | 427 kts | 21° |
| 2026-04-28 23:05 | -41.80792 | 173.38669 | 35527 ft | 427 kts | 21° |
| 2026-04-28 23:05 | -41.78013 | 173.40057 | 35785 ft | 428 kts | 21° |
| 2026-04-28 23:05 | -41.75221 | 173.41450 | 36009 ft | 429 kts | 21° |
| 2026-04-28 23:05 | -41.72427 | 173.42845 | 36217 ft | 430 kts | 21° |
| 2026-04-28 23:06 | -41.69623 | 173.44243 | 36433 ft | 431 kts | 21° |
| 2026-04-28 23:06 | -41.66828 | 173.45636 | 36635 ft | 432 kts | 21° |
| 2026-04-28 23:06 | -41.64015 | 173.47035 | 36831 ft | 433 kts | 21° |
| 2026-04-28 23:06 | -41.61208 | 173.48430 | 37019 ft | 434 kts | 21° |
| 2026-04-28 23:07 | -41.58367 | 173.49840 | 37199 ft | 435 kts | 21° |
| 2026-04-28 23:07 | -41.55555 | 173.51234 | 37212 ft | 436 kts | 21° |
| 2026-04-28 23:07 | -41.49879 | 173.54044 | 37229 ft | 436 kts | 21° |
| 2026-04-28 23:08 | -41.44208 | 173.56844 | 37225 ft | 436 kts | 21° |
| 2026-04-28 23:08 | -41.38509 | 173.59653 | 37227 ft | 436 kts | 21° |
| 2026-04-28 23:09 | -41.32835 | 173.62445 | 37229 ft | 436 kts | 21° |
| 2026-04-28 23:09 | -41.27146 | 173.65240 | 37229 ft | 436 kts | 21° |
| 2026-04-28 23:10 | -41.21466 | 173.68024 | 37223 ft | 436 kts | 21° |
| 2026-04-28 23:10 | -41.15768 | 173.70811 | 37228 ft | 437 kts | 21° |
| 2026-04-28 23:11 | -41.10083 | 173.73590 | 37230 ft | 436 kts | 21° |
| 2026-04-28 23:11 | -41.04384 | 173.76367 | 37230 ft | 437 kts | 21° |
| 2026-04-28 23:12 | -40.98675 | 173.79146 | 37243 ft | 437 kts | 21° |
| 2026-04-28 23:12 | -40.93007 | 173.81902 | 37234 ft | 437 kts | 21° |
| 2026-04-28 23:13 | -40.87318 | 173.84660 | 37240 ft | 437 kts | 21° |
| 2026-04-28 23:13 | -40.81583 | 173.87437 | 37242 ft | 437 kts | 21° |
| 2026-04-28 23:14 | -40.75870 | 173.90196 | 37252 ft | 438 kts | 21° |
| 2026-04-28 23:14 | -40.70164 | 173.92947 | 37269 ft | 438 kts | 21° |
| 2026-04-28 23:15 | -40.64468 | 173.95688 | 37260 ft | 438 kts | 21° |
| 2026-04-28 23:15 | -40.58749 | 173.98434 | 37271 ft | 438 kts | 21° |
| 2026-04-28 23:16 | -40.53033 | 174.01178 | 37273 ft | 438 kts | 21° |
| 2026-04-28 23:16 | -40.47313 | 174.03915 | 37284 ft | 438 kts | 21° |
| 2026-04-28 23:17 | -40.41586 | 174.06650 | 37017 ft | 439 kts | 21° |
| 2026-04-28 23:17 | -40.38728 | 174.08012 | 37201 ft | 440 kts | 21° |
| 2026-04-28 23:17 | -40.35847 | 174.09386 | 37255 ft | 441 kts | 21° |
| 2026-04-28 23:18 | -40.30084 | 174.12129 | 37287 ft | 441 kts | 21° |
| 2026-04-28 23:18 | -40.24328 | 174.14868 | 37300 ft | 441 kts | 21° |
| 2026-04-28 23:19 | -40.18559 | 174.17610 | 37311 ft | 441 kts | 20° |
| 2026-04-28 23:19 | -40.12805 | 174.20335 | 37312 ft | 441 kts | 20° |
| 2026-04-28 23:20 | -40.07062 | 174.23047 | 37307 ft | 441 kts | 20° |
| 2026-04-28 23:20 | -40.01300 | 174.25766 | 37316 ft | 442 kts | 20° |
| 2026-04-28 23:21 | -39.95517 | 174.28494 | 37321 ft | 442 kts | 20° |
| 2026-04-28 23:21 | -39.89741 | 174.31212 | 37323 ft | 442 kts | 20° |
| 2026-04-28 23:22 | -39.84896 | 174.33487 | 37327 ft | 442 kts | 20° |
| 2026-04-28 23:22 | -39.78162 | 174.36642 | 37332 ft | 441 kts | 20° |
| 2026-04-28 23:23 | -39.72402 | 174.39334 | 37334 ft | 440 kts | 20° |
| 2026-04-28 23:23 | -39.66680 | 174.42003 | 37332 ft | 439 kts | 20° |
| 2026-04-28 23:24 | -39.60932 | 174.44681 | 37332 ft | 439 kts | 20° |
| 2026-04-28 23:24 | -39.55210 | 174.47340 | 37205 ft | 439 kts | 20° |
| 2026-04-28 23:25 | -39.52344 | 174.48671 | 36909 ft | 437 kts | 20° |
| 2026-04-28 23:25 | -39.49489 | 174.49999 | 36624 ft | 434 kts | 19° |
| 2026-04-28 23:25 | -39.46658 | 174.51314 | 36340 ft | 431 kts | 19° |
| 2026-04-28 23:25 | -39.43828 | 174.52628 | 36025 ft | 430 kts | 19° |
| 2026-04-28 23:26 | -39.41024 | 174.53926 | 35564 ft | 432 kts | 19° |
| 2026-04-28 23:26 | -39.38202 | 174.55231 | 34962 ft | 433 kts | 19° |
| 2026-04-28 23:26 | -39.35348 | 174.56549 | 34313 ft | 436 kts | 19° |
| 2026-04-28 23:26 | -39.32531 | 174.57849 | 33528 ft | 440 kts | 18° |
| 2026-04-28 23:27 | -39.29641 | 174.59181 | 32727 ft | 443 kts | 18° |
| 2026-04-28 23:27 | -39.26727 | 174.60524 | 31921 ft | 446 kts | 18° |
| 2026-04-28 23:27 | -39.23804 | 174.61870 | 31125 ft | 447 kts | 18° |
| 2026-04-28 23:27 | -39.20902 | 174.63203 | 30613 ft | 442 kts | 18° |
| 2026-04-28 23:28 | -39.18028 | 174.64525 | 30103 ft | 437 kts | 18° |
| 2026-04-28 23:28 | -39.15179 | 174.65832 | 29585 ft | 433 kts | 17° |
| 2026-04-28 23:28 | -39.12360 | 174.67127 | 29056 ft | 429 kts | 17° |
| 2026-04-28 23:28 | -39.09576 | 174.68404 | 28509 ft | 425 kts | 17° |
| 2026-04-28 23:29 | -39.06818 | 174.69669 | 27985 ft | 422 kts | 17° |
| 2026-04-28 23:29 | -39.04050 | 174.70935 | 27510 ft | 417 kts | 17° |
| 2026-04-28 23:29 | -39.01345 | 174.72172 | 27011 ft | 413 kts | 17° |
| 2026-04-28 23:29 | -38.98664 | 174.73396 | 26508 ft | 410 kts | 16° |
| 2026-04-28 23:30 | -38.95971 | 174.74623 | 26001 ft | 407 kts | 16° |
| 2026-04-28 23:30 | -38.93315 | 174.75833 | 25490 ft | 404 kts | 16° |
| 2026-04-28 23:30 | -38.90678 | 174.77034 | 24980 ft | 401 kts | 16° |
| 2026-04-28 23:30 | -38.88059 | 174.78226 | 24466 ft | 398 kts | 16° |
| 2026-04-28 23:31 | -38.85463 | 174.79407 | 23949 ft | 396 kts | 16° |
| 2026-04-28 23:31 | -38.82906 | 174.80592 | 23442 ft | 394 kts | 18° |
| 2026-04-28 23:31 | -38.80363 | 174.81938 | 22929 ft | 393 kts | 20° |
| 2026-04-28 23:31 | -38.77887 | 174.83299 | 22440 ft | 391 kts | 20° |
| 2026-04-28 23:32 | -38.75388 | 174.84672 | 21947 ft | 388 kts | 20° |
| 2026-04-28 23:32 | -38.72929 | 174.86023 | 21469 ft | 386 kts | 20° |
| 2026-04-28 23:32 | -38.70441 | 174.87389 | 20983 ft | 384 kts | 20° |
| 2026-04-28 23:32 | -38.68017 | 174.88716 | 20503 ft | 383 kts | 20° |
| 2026-04-28 23:33 | -38.65563 | 174.90057 | 20005 ft | 382 kts | 20° |
| 2026-04-28 23:33 | -38.63116 | 174.91397 | 19499 ft | 381 kts | 20° |
| 2026-04-28 23:33 | -38.60697 | 174.92719 | 18999 ft | 380 kts | 20° |
| 2026-04-28 23:33 | -38.58272 | 174.94043 | 18496 ft | 379 kts | 20° |
| 2026-04-28 23:34 | -38.55838 | 174.95372 | 18006 ft | 378 kts | 20° |
| 2026-04-28 23:34 | -38.53435 | 174.96683 | 17529 ft | 376 kts | 20° |
| 2026-04-28 23:34 | -38.51054 | 174.97980 | 17066 ft | 374 kts | 20° |
| 2026-04-28 23:34 | -38.48646 | 174.99291 | 16611 ft | 372 kts | 20° |
| 2026-04-28 23:35 | -38.46286 | 175.00575 | 16169 ft | 370 kts | 20° |
| 2026-04-28 23:35 | -38.43933 | 175.01855 | 15717 ft | 367 kts | 20° |
| 2026-04-28 23:35 | -38.41594 | 175.03126 | 15272 ft | 365 kts | 20° |
| 2026-04-28 23:35 | -38.39265 | 175.04391 | 14824 ft | 362 kts | 20° |
| 2026-04-28 23:36 | -38.36964 | 175.05640 | 14371 ft | 360 kts | 21° |
| 2026-04-28 23:36 | -38.34654 | 175.06892 | 13922 ft | 358 kts | 21° |
| 2026-04-28 23:36 | -38.32377 | 175.08125 | 13471 ft | 355 kts | 21° |
| 2026-04-28 23:36 | -38.30123 | 175.09346 | 13020 ft | 353 kts | 21° |
| 2026-04-28 23:37 | -38.27859 | 175.10571 | 12562 ft | 351 kts | 21° |
| 2026-04-28 23:37 | -38.25612 | 175.11786 | 12104 ft | 349 kts | 21° |
| 2026-04-28 23:37 | -38.23353 | 175.12872 | 11644 ft | 346 kts | 17° |
| 2026-04-28 23:37 | -38.21080 | 175.13709 | 11190 ft | 343 kts | 12° |
| 2026-04-28 23:38 | -38.18764 | 175.14389 | 10734 ft | 341 kts | 11° |
| 2026-04-28 23:38 | -38.16450 | 175.15050 | 10346 ft | 337 kts | 11° |
| 2026-04-28 23:38 | -38.14201 | 175.15691 | 10147 ft | 326 kts | 11° |
| 2026-04-28 23:38 | -38.12019 | 175.16313 | 10029 ft | 314 kts | 11° |
| 2026-04-28 23:39 | -38.09911 | 175.16916 | 9898 ft | 304 kts | 11° |
| 2026-04-28 23:39 | -38.07863 | 175.17500 | 9519 ft | 303 kts | 12° |
| 2026-04-28 23:39 | -38.05821 | 175.18085 | 9136 ft | 302 kts | 12° |
| 2026-04-28 23:39 | -38.03791 | 175.18668 | 8765 ft | 296 kts | 11° |
| 2026-04-28 23:40 | -38.01823 | 175.19234 | 8401 ft | 283 kts | 11° |
| 2026-04-28 23:40 | -37.99950 | 175.19771 | 8072 ft | 269 kts | 11° |
| 2026-04-28 23:40 | -37.98129 | 175.20314 | 7723 ft | 265 kts | 14° |
| 2026-04-28 23:40 | -37.96355 | 175.20949 | 7403 ft | 264 kts | 14° |
| 2026-04-28 23:41 | -37.94593 | 175.21591 | 7085 ft | 264 kts | 14° |
| 2026-04-28 23:41 | -37.92861 | 175.22224 | 6938 ft | 257 kts | 15° |
| 2026-04-28 23:41 | -37.91187 | 175.22836 | 6932 ft | 244 kts | 14° |
| 2026-04-28 23:41 | -37.89588 | 175.23421 | 6946 ft | 231 kts | 14° |
| 2026-04-28 23:42 | -37.88032 | 175.23987 | 6690 ft | 233 kts | 14° |
| 2026-04-28 23:42 | -37.86462 | 175.24554 | 6290 ft | 239 kts | 15° |
| 2026-04-28 23:42 | -37.84872 | 175.25131 | 5850 ft | 239 kts | 15° |
| 2026-04-28 23:42 | -37.83281 | 175.25711 | 5445 ft | 234 kts | 15° |
| 2026-04-28 23:43 | -37.81751 | 175.26270 | 5102 ft | 227 kts | 15° |
| 2026-04-28 23:43 | -37.80235 | 175.26820 | 4807 ft | 226 kts | 15° |
| 2026-04-28 23:43 | -37.78707 | 175.27374 | 4534 ft | 227 kts | 15° |
| 2026-04-28 23:43 | -37.77189 | 175.27925 | 4248 ft | 227 kts | 15° |
| 2026-04-28 23:44 | -37.75681 | 175.28471 | 3982 ft | 228 kts | 15° |
| 2026-04-28 23:44 | -37.74149 | 175.29027 | 3719 ft | 229 kts | 15° |
| 2026-04-28 23:44 | -37.72615 | 175.29608 | 3421 ft | 231 kts | 21° |
| 2026-04-28 23:44 | -37.71359 | 175.30835 | 3107 ft | 236 kts | 58° |
| 2026-04-28 23:45 | -37.71028 | 175.32803 | 3019 ft | 230 kts | 99° |
| 2026-04-28 23:45 | -37.71506 | 175.34674 | 3000 ft | 220 kts | 112° |
| 2026-04-28 23:45 | -37.72091 | 175.36412 | 2928 ft | 211 kts | 111° |
| 2026-04-28 23:45 | -37.72714 | 175.38001 | 2969 ft | 195 kts | 129° |
| 2026-04-28 23:46 | -37.73830 | 175.38739 | 2921 ft | 177 kts | 180° |
| 2026-04-28 23:46 | -37.74918 | 175.38301 | 2911 ft | 156 kts | 210° |
| 2026-04-28 23:46 | -37.75845 | 175.37654 | 2929 ft | 151 kts | 210° |
| 2026-04-28 23:46 | -37.76797 | 175.37074 | 2929 ft | 151 kts | 206° |
| 2026-04-28 23:47 | -37.77769 | 175.36587 | 2882 ft | 147 kts | 202° |
| 2026-04-28 23:47 | -37.78738 | 175.36168 | 2563 ft | 148 kts | 200° |
| 2026-04-28 23:47 | -37.79707 | 175.35783 | 2279 ft | 144 kts | 199° |
| 2026-04-28 23:47 | -37.80649 | 175.35428 | 1976 ft | 140 kts | 198° |
| 2026-04-28 23:48 | -37.81575 | 175.35086 | 1669 ft | 137 kts | 198° |
| 2026-04-28 23:48 | -37.82480 | 175.34757 | 1368 ft | 133 kts | 198° |
| 2026-04-28 23:48 | -37.83373 | 175.34428 | 1065 ft | 132 kts | 199° |
| 2026-04-28 23:48 | -37.84246 | 175.34116 | 918 ft | 131 kts | 196° |
| 2026-04-28 23:49 | -37.85125 | 175.33817 | 671 ft | 131 kts | 195° |
| 2026-04-28 23:49 | -37.86026 | 175.33560 | 571 ft | 140 kts | 192° |
| 2026-04-28 23:49 | -37.86985 | 175.33264 | 1260 ft | 142 kts | 198° |
| 2026-04-28 23:49 | -37.87928 | 175.32886 | 1995 ft | 148 kts | 200° |
| 2026-04-28 23:50 | -37.88952 | 175.32466 | 2622 ft | 168 kts | 200° |
| 2026-04-28 23:50 | -37.90138 | 175.31998 | 2932 ft | 195 kts | 198° |
| 2026-04-28 23:50 | -37.91518 | 175.31476 | 2868 ft | 213 kts | 198° |
| 2026-04-28 23:50 | -37.92942 | 175.30951 | 2883 ft | 213 kts | 198° |
| 2026-04-28 23:51 | -37.94371 | 175.30434 | 2905 ft | 214 kts | 198° |
| 2026-04-28 23:51 | -37.95797 | 175.29916 | 2899 ft | 213 kts | 197° |
| 2026-04-28 23:51 | -37.97236 | 175.29396 | 2920 ft | 213 kts | 197° |
| 2026-04-28 23:51 | -37.98652 | 175.28882 | 2924 ft | 213 kts | 197° |
| 2026-04-28 23:52 | -38.00087 | 175.28358 | 2924 ft | 213 kts | 197° |
| 2026-04-28 23:52 | -38.01517 | 175.27835 | 2918 ft | 213 kts | 199° |
| 2026-04-28 23:52 | -38.02871 | 175.27090 | 2912 ft | 212 kts | 210° |
| 2026-04-28 23:52 | -38.04152 | 175.26169 | 2913 ft | 212 kts | 212° |
| 2026-04-28 23:53 | -38.05440 | 175.25230 | 2915 ft | 213 kts | 211° |
| 2026-04-28 23:53 | -38.06733 | 175.24312 | 2918 ft | 213 kts | 211° |
| 2026-04-28 23:53 | -38.08041 | 175.23406 | 2919 ft | 213 kts | 210° |
| 2026-04-28 23:53 | -38.09357 | 175.22507 | 2919 ft | 213 kts | 210° |
| 2026-04-28 23:54 | -38.10656 | 175.21628 | 2918 ft | 214 kts | 210° |
| 2026-04-28 23:54 | -38.11906 | 175.20619 | 2908 ft | 211 kts | 230° |
| 2026-04-28 23:54 | -38.12453 | 175.18959 | 2910 ft | 206 kts | 274° |
| 2026-04-28 23:54 | -38.12034 | 175.17273 | 2925 ft | 204 kts | 305° |
| 2026-04-28 23:55 | -38.10975 | 175.16075 | 2926 ft | 206 kts | 334° |
| 2026-04-28 23:55 | -38.09583 | 175.15727 | 2926 ft | 208 kts | 5° |
| 2026-04-28 23:55 | -38.08173 | 175.16211 | 2936 ft | 211 kts | 18° |
| 2026-04-28 23:55 | -38.06789 | 175.16811 | 2935 ft | 210 kts | 17° |
| 2026-04-28 23:56 | -38.05395 | 175.17398 | 2935 ft | 210 kts | 17° |
| 2026-04-28 23:56 | -38.04007 | 175.17969 | 2937 ft | 209 kts | 16° |
| 2026-04-28 23:56 | -38.02629 | 175.18524 | 2932 ft | 206 kts | 16° |
| 2026-04-28 23:56 | -38.01292 | 175.19060 | 2925 ft | 196 kts | 15° |
| 2026-04-28 23:57 | -38.00008 | 175.19572 | 2926 ft | 190 kts | 16° |
| 2026-04-28 23:57 | -37.98736 | 175.20077 | 2921 ft | 190 kts | 15° |
| 2026-04-28 23:57 | -37.97469 | 175.20564 | 2925 ft | 190 kts | 14° |
| 2026-04-28 23:57 | -37.96208 | 175.21024 | 2924 ft | 190 kts | 14° |
| 2026-04-28 23:58 | -37.94933 | 175.21483 | 2949 ft | 188 kts | 14° |
| 2026-04-28 23:58 | -37.93713 | 175.21925 | 2972 ft | 173 kts | 14° |
| 2026-04-28 23:58 | -37.92611 | 175.22327 | 2924 ft | 159 kts | 14° |
| 2026-04-28 23:58 | -37.91587 | 175.22700 | 2899 ft | 147 kts | 14° |
| 2026-04-28 23:59 | -37.90606 | 175.23056 | 2922 ft | 152 kts | 14° |
| 2026-04-28 23:59 | -37.89498 | 175.23454 | 2979 ft | 176 kts | 14° |
| 2026-04-28 23:59 | -37.88296 | 175.23891 | 2963 ft | 182 kts | 15° |
| 2026-04-28 23:59 | -37.87077 | 175.24335 | 2944 ft | 183 kts | 15° |
| 2026-04-29 00:00 | -37.85847 | 175.24783 | 2935 ft | 182 kts | 15° |
| 2026-04-29 00:00 | -37.84624 | 175.25229 | 2928 ft | 182 kts | 15° |
| 2026-04-29 00:00 | -37.83406 | 175.25674 | 2932 ft | 182 kts | 15° |
| 2026-04-29 00:00 | -37.82193 | 175.26117 | 2926 ft | 177 kts | 15° |
| 2026-04-29 00:01 | -37.81060 | 175.26532 | 2899 ft | 161 kts | 14° |
| 2026-04-29 00:01 | -37.79949 | 175.26936 | 2935 ft | 177 kts | 14° |
| 2026-04-29 00:01 | -37.78736 | 175.27374 | 2941 ft | 182 kts | 14° |
| 2026-04-29 00:01 | -37.77513 | 175.27818 | 2926 ft | 183 kts | 14° |
| 2026-04-29 00:02 | -37.76284 | 175.28265 | 2919 ft | 183 kts | 14° |
| 2026-04-29 00:02 | -37.75059 | 175.28709 | 2926 ft | 183 kts | 15° |
| 2026-04-29 00:02 | -37.73846 | 175.29149 | 2921 ft | 183 kts | 15° |
| 2026-04-29 00:02 | -37.72615 | 175.29623 | 2914 ft | 183 kts | 21° |
| 2026-04-29 00:03 | -37.71657 | 175.30655 | 2913 ft | 187 kts | 58° |
| 2026-04-29 00:03 | -37.71357 | 175.32245 | 2933 ft | 190 kts | 93° |
| 2026-04-29 00:03 | -37.71662 | 175.33862 | 2948 ft | 191 kts | 106° |
| 2026-04-29 00:03 | -37.72063 | 175.35467 | 2939 ft | 190 kts | 107° |
| 2026-04-29 00:04 | -37.72437 | 175.36955 | 2938 ft | 169 kts | 109° |
| 2026-04-29 00:04 | -37.73092 | 175.38054 | 2858 ft | 154 kts | 156° |
| 2026-04-29 00:04 | -37.74119 | 175.38043 | 2540 ft | 150 kts | 205° |
| 2026-04-29 00:04 | -37.75063 | 175.37521 | 2292 ft | 148 kts | 202° |
| 2026-04-29 00:05 | -37.76039 | 175.37105 | 2081 ft | 144 kts | 199° |
| 2026-04-29 00:05 | -37.76962 | 175.36757 | 1863 ft | 135 kts | 199° |
| 2026-04-29 00:05 | -37.77862 | 175.36427 | 1687 ft | 133 kts | 198° |
| 2026-04-29 00:05 | -37.78745 | 175.36105 | 1514 ft | 133 kts | 198° |
| 2026-04-29 00:06 | -37.79631 | 175.35785 | 1346 ft | 132 kts | 198° |
| 2026-04-29 00:06 | -37.80516 | 175.35463 | 1172 ft | 132 kts | 198° |
| 2026-04-29 00:06 | -37.81395 | 175.35146 | 1000 ft | 131 kts | 197° |
| 2026-04-29 00:06 | -37.82267 | 175.34831 | 829 ft | 130 kts | 197° |
| 2026-04-29 00:07 | -37.83143 | 175.34514 | 655 ft | 129 kts | 197° |
| 2026-04-29 00:07 | -37.84010 | 175.34201 | 482 ft | 129 kts | 197° |
| 2026-04-29 00:07 | -37.84865 | 175.33887 | 323 ft | 128 kts | 197° |
| 2026-04-29 00:07 | -37.85716 | 175.33572 | 211 ft | 127 kts | 196° |
| 2026-04-29 00:08 | -37.86430 | 175.33308 | 185 ft | 68 kts | 197° |
| 2026-04-29 00:08 | -37.86694 | 175.33215 | 183 ft | 28 kts | 196° |
| 2026-04-29 00:08 | -37.86771 | 175.33183 | 183 ft | 2 kts | 124° |
| 2026-04-29 00:08 | -37.86741 | 175.33197 | 183 ft | 12 kts | 11° |
| 2026-04-29 00:09 | -37.86585 | 175.33250 | 184 ft | 27 kts | 15° |
| 2026-04-29 00:09 | -37.86549 | 175.33388 | 184 ft | 15 kts | 105° |
| 2026-04-29 00:09 | -37.86583 | 175.33496 | 184 ft | 7 kts | 118° |
| 2026-04-29 00:09 | -37.86603 | 175.33542 | 184 ft | 0 kts | 117° |
| 2026-04-29 00:10 | -37.86605 | 175.33545 | 184 ft | 0 kts | 117° |